Time;durP1;ratioP1;P1;durP2;ratioP2;P2;SDS_P1;SDS_P2;PMS_P1;PMS_P2;Temp;Humidity;BMP_temperature;BMP_pressure;BME280_temperature;BME280_humidity;BME280_pressure;Samples;Min_cycle;Max_cycle;Signal;HPM_P1;HPM_P2
2021/08/21 00:00:44;;;;;;;12.82;7.45;;;17.00;94.10;;;;;;5012242;28;20030;-80
2021/08/21 00:03:10;;;;;;;12.38;9.25;;;17.00;94.20;;;;;;5012193;28;20037;-80
2021/08/21 00:05:36;;;;;;;10.02;7.90;;;17.00;94.20;;;;;;5012105;28;20057;-80
2021/08/21 00:08:02;;;;;;;11.80;8.45;;;17.00;94.30;;;;;;4996122;28;20033;-80
2021/08/21 00:10:29;;;;;;;12.93;8.68;;;16.90;94.40;;;;;;4995632;28;20030;-80
2021/08/21 00:12:55;;;;;;;12.02;8.90;;;16.90;94.40;;;;;;4995550;28;20065;-80
2021/08/21 00:15:20;;;;;;;13.85;9.25;;;16.90;94.50;;;;;;5013871;28;20037;-80
2021/08/21 00:17:47;;;;;;;13.35;8.93;;;16.90;94.50;;;;;;5012326;28;20034;-80
2021/08/21 00:20:13;;;;;;;11.40;8.00;;;16.90;94.50;;;;;;5012027;28;20437;-80
2021/08/21 00:22:39;;;;;;;11.40;8.50;;;16.80;94.50;;;;;;5013073;28;20026;-80
2021/08/21 00:25:05;;;;;;;11.73;8.38;;;16.80;94.50;;;;;;5011901;28;20022;-80
2021/08/21 00:27:31;;;;;;;12.43;8.07;;;16.80;94.50;;;;;;5012174;28;20143;-81
2021/08/21 00:29:57;;;;;;;10.50;7.85;;;16.80;94.50;;;;;;4995767;28;20470;-80
2021/08/21 00:32:22;;;;;;;11.52;7.65;;;16.80;94.50;;;;;;5009979;28;20048;-80
2021/08/21 00:34:48;;;;;;;11.77;7.07;;;16.70;94.50;;;;;;4995153;28;20387;-80
2021/08/21 00:37:14;;;;;;;11.82;7.38;;;16.70;94.50;;;;;;5008158;28;20034;-80
2021/08/21 00:39:39;;;;;;;10.88;7.75;;;16.70;94.50;;;;;;5010041;28;20458;-80
2021/08/21 00:42:06;;;;;;;12.68;8.18;;;16.60;94.50;;;;;;4992003;28;20722;-80
2021/08/21 00:44:33;;;;;;;10.98;8.00;;;16.60;94.50;;;;;;4991789;28;20532;-80
2021/08/21 00:47:05;;;;;;;14.55;7.95;;;16.60;94.50;;;;;;4992336;28;20022;-80
2021/08/21 00:49:35;;;;;;;14.68;8.68;;;16.60;94.50;;;;;;4992232;28;20034;-80
2021/08/21 00:52:03;;;;;;;11.77;8.95;;;16.60;94.80;;;;;;4992186;28;20543;-80
2021/08/21 00:54:28;;;;;;;18.60;9.07;;;16.50;94.50;;;;;;4993056;28;20129;-80
2021/08/21 00:56:56;;;;;;;12.27;9.20;;;16.50;94.50;;;;;;4976106;28;20117;-80
2021/08/21 00:59:21;;;;;;;11.60;9.27;;;16.50;94.50;;;;;;4992001;28;20137;-80
2021/08/21 01:01:48;;;;;;;13.65;9.98;;;16.50;94.50;;;;;;4975943;28;20065;-80
2021/08/21 01:04:14;;;;;;;12.80;9.43;;;16.40;94.50;;;;;;4991836;28;20029;-80
2021/08/21 01:06:40;;;;;;;12.15;8.95;;;16.40;94.50;;;;;;4995317;28;20038;-81
2021/08/21 01:09:06;;;;;;;12.77;9.23;;;16.40;94.50;;;;;;4996928;28;20464;-80
2021/08/21 01:11:32;;;;;;;11.30;8.68;;;16.40;94.50;;;;;;4995624;28;20368;-80
2021/08/21 01:13:59;;;;;;;17.92;8.13;;;16.30;94.50;;;;;;4996658;28;20045;-80
2021/08/21 01:16:25;;;;;;;24.45;8.38;;;16.30;94.50;;;;;;4995812;28;20028;-80
2021/08/21 01:18:51;;;;;;;34.22;8.63;;;16.20;94.60;;;;;;4996848;28;20034;-80
2021/08/21 01:21:16;;;;;;;10.15;7.97;;;16.20;94.60;;;;;;4995571;28;20031;-80
2021/08/21 01:23:42;;;;;;;11.82;8.07;;;16.10;94.70;;;;;;4978927;28;20030;-80
2021/08/21 01:26:12;;;;;;;12.65;8.95;;;16.10;94.80;;;;;;4979361;28;20035;-80
2021/08/21 01:28:38;;;;;;;11.75;8.85;;;16.10;94.80;;;;;;4996809;28;20041;-80
2021/08/21 01:31:05;;;;;;;13.25;8.95;;;16.10;94.80;;;;;;4995227;28;20053;-81
2021/08/21 01:33:33;;;;;;;13.95;9.80;;;16.00;94.80;;;;;;4995108;28;20046;-80
2021/08/21 01:35:58;;;;;;;12.27;9.20;;;16.00;94.80;;;;;;4995450;28;20031;-81
2021/08/21 01:38:24;;;;;;;11.00;8.50;;;16.00;94.80;;;;;;4979175;28;20034;-80
2021/08/21 01:40:51;;;;;;;11.82;8.85;;;16.00;94.90;;;;;;4995244;28;20509;-80
2021/08/21 01:43:18;;;;;;;10.70;8.48;;;15.90;95.00;;;;;;4997533;28;20026;-80
2021/08/21 01:45:43;;;;;;;11.35;9.05;;;15.90;95.00;;;;;;4995450;28;20038;-80
2021/08/21 01:48:09;;;;;;;10.90;8.52;;;15.90;95.10;;;;;;4993854;28;20398;-80
2021/08/21 01:50:35;;;;;;;10.77;8.75;;;15.90;95.10;;;;;;4993493;28;20034;-80
2021/08/21 01:53:00;;;;;;;10.27;7.95;;;15.90;95.20;;;;;;4994717;28;20034;-80
2021/08/21 01:55:29;;;;;;;10.95;8.73;;;15.90;95.20;;;;;;4995203;28;20475;-80
2021/08/21 01:57:55;;;;;;;11.05;8.80;;;15.90;95.30;;;;;;4993853;28;20066;-80
2021/08/21 02:00:28;;;;;;;11.07;8.80;;;15.90;95.30;;;;;;4994874;28;20034;-80
2021/08/21 02:02:55;;;;;;;11.68;8.93;;;15.90;95.40;;;;;;4994883;28;20095;-80
2021/08/21 02:05:21;;;;;;;11.55;7.75;;;15.90;95.40;;;;;;4996139;28;20061;-80
2021/08/21 02:07:47;;;;;;;11.00;8.38;;;15.80;95.40;;;;;;4978428;28;20398;-80
2021/08/21 02:10:12;;;;;;;11.18;7.78;;;15.90;95.50;;;;;;4994914;28;20026;-80
2021/08/21 02:12:38;;;;;;;11.07;7.75;;;15.90;95.50;;;;;;4995938;28;20085;-81
2021/08/21 02:15:13;;;;;;;11.70;8.65;;;15.80;95.50;;;;;;4994303;28;20074;-80
2021/08/21 02:17:39;;;;;;;10.60;7.93;;;15.90;95.60;;;;;;4995323;28;20033;-80
2021/08/21 02:20:12;;;;;;;12.75;9.18;;;15.90;95.60;;;;;;4994134;28;20030;-80
2021/08/21 02:22:39;;;;;;;12.82;9.88;;;15.80;95.60;;;;;;4995481;28;20487;-80
2021/08/21 02:25:06;;;;;;;13.82;10.27;;;15.80;95.60;;;;;;4994567;28;20026;-80
2021/08/21 02:27:40;;;;;;;13.57;10.70;;;15.80;95.60;;;;;;4994490;28;20039;-80
2021/08/21 02:30:07;;;;;;;16.80;12.02;;;15.80;95.60;;;;;;5010552;28;20069;-80
2021/08/21 02:32:33;;;;;;;22.35;14.35;;;15.80;95.60;;;;;;4977813;28;20037;-80
2021/08/21 02:34:58;;;;;;;18.88;13.98;;;15.70;95.50;;;;;;5010553;28;20034;-80
2021/08/21 02:37:25;;;;;;;17.13;13.30;;;15.80;95.60;;;;;;4994214;28;20034;-80
2021/08/21 02:39:51;;;;;;;17.83;14.45;;;15.70;95.50;;;;;;4994316;28;20030;-80
2021/08/21 02:42:17;;;;;;;22.80;15.75;;;15.70;95.50;;;;;;4994474;28;20057;-80
2021/08/21 02:44:42;;;;;;;17.52;14.23;;;15.70;95.50;;;;;;4995229;28;20058;-80
2021/08/21 02:47:08;;;;;;;17.63;14.32;;;15.70;95.50;;;;;;5009893;28;20056;-80
2021/08/21 02:49:34;;;;;;;15.93;13.18;;;15.60;95.50;;;;;;5010374;28;20475;-80
2021/08/21 02:52:01;;;;;;;14.57;11.73;;;15.60;95.60;;;;;;4993751;28;20176;-80
2021/08/21 02:54:26;;;;;;;14.18;11.90;;;15.60;95.60;;;;;;4993775;28;20046;-80
2021/08/21 02:56:52;;;;;;;15.63;11.65;;;15.60;95.70;;;;;;5010016;28;20437;-80
2021/08/21 02:59:18;;;;;;;15.77;11.65;;;15.60;95.70;;;;;;4993831;28;20046;-80
2021/08/21 03:01:43;;;;;;;15.40;11.05;;;15.60;95.70;;;;;;5009698;28;20173;-80
2021/08/21 03:04:09;;;;;;;18.13;11.48;;;15.60;95.70;;;;;;4993760;28;20065;-80
2021/08/21 03:06:35;;;;;;;23.02;12.27;;;15.70;95.70;;;;;;4977432;28;20046;-80
2021/08/21 03:09:02;;;;;;;27.17;12.35;;;15.60;95.80;;;;;;4994706;28;20057;-80
2021/08/21 03:11:28;;;;;;;23.10;11.57;;;15.70;95.80;;;;;;5009674;28;20034;-80
2021/08/21 03:13:53;;;;;;;24.50;11.98;;;15.70;95.80;;;;;;5009595;28;20030;-80
2021/08/21 03:16:19;;;;;;;25.38;11.70;;;15.70;95.80;;;;;;4994479;28;20081;-80
2021/08/21 03:18:44;;;;;;;24.90;12.85;;;15.70;95.80;;;;;;4993283;28;20030;-80
2021/08/21 03:21:10;;;;;;;20.20;12.48;;;15.70;95.80;;;;;;4977195;28;20053;-80
2021/08/21 03:23:38;;;;;;;20.60;12.57;;;15.80;95.80;;;;;;4993263;28;20050;-80
2021/08/21 03:26:04;;;;;;;19.90;12.73;;;15.80;95.80;;;;;;4988811;28;20074;-79
2021/08/21 03:28:30;;;;;;;20.67;11.77;;;15.80;95.80;;;;;;4992187;28;20121;-80
2021/08/21 03:30:56;;;;;;;20.95;12.40;;;15.80;95.90;;;;;;4976289;28;20125;-80
2021/08/21 03:33:22;;;;;;;20.10;11.10;;;15.80;95.90;;;;;;4993180;28;20034;-80
2021/08/21 03:35:48;;;;;;;21.05;12.20;;;15.80;95.90;;;;;;4992677;28;20053;-80
2021/08/21 03:38:14;;;;;;;21.17;12.05;;;15.80;95.90;;;;;;4992869;28;20050;-80
2021/08/21 03:40:39;;;;;;;22.88;12.90;;;15.90;96.00;;;;;;4992645;28;20076;-80
2021/08/21 03:43:05;;;;;;;21.55;12.82;;;15.90;96.00;;;;;;4976662;28;20037;-80
2021/08/21 03:45:30;;;;;;;26.98;14.57;;;15.90;96.00;;;;;;4976883;28;20027;-80
2021/08/21 03:47:56;;;;;;;22.67;13.85;;;15.90;96.00;;;;;;4993804;28;20037;-80
2021/08/21 03:50:22;;;;;;;26.10;12.75;;;16.00;96.10;;;;;;4993109;28;20069;-80
2021/08/21 03:52:47;;;;;;;22.67;12.27;;;16.00;96.10;;;;;;4976345;28;20034;-80
2021/08/21 03:55:14;;;;;;;22.88;12.80;;;16.00;96.10;;;;;;4993306;28;20026;-80
2021/08/21 03:57:40;;;;;;;20.48;12.38;;;16.00;96.10;;;;;;4976538;28;20026;-80
2021/08/21 04:00:07;;;;;;;21.05;12.63;;;16.00;96.10;;;;;;4976374;28;20133;-80
2021/08/21 04:02:33;;;;;;;17.52;12.70;;;16.10;96.10;;;;;;4993813;28;20061;-80
2021/08/21 04:04:59;;;;;;;19.55;12.82;;;16.10;96.10;;;;;;5011388;28;20029;-80
2021/08/21 04:07:25;;;;;;;19.17;13.15;;;16.10;96.10;;;;;;5011931;28;20030;-80
2021/08/21 04:09:50;;;;;;;19.77;13.27;;;16.10;96.20;;;;;;5012312;28;20599;-80
2021/08/21 04:12:18;;;;;;;17.73;12.02;;;16.10;96.20;;;;;;5011861;28;20533;-80
2021/08/21 04:14:44;;;;;;;18.42;12.85;;;16.10;96.20;;;;;;5013202;28;20046;-80
2021/08/21 04:17:09;;;;;;;19.63;13.68;;;16.20;96.20;;;;;;4995332;28;20137;-80
2021/08/21 04:19:35;;;;;;;18.75;13.35;;;16.20;96.20;;;;;;4995659;28;20522;-80
2021/08/21 04:22:01;;;;;;;20.73;13.35;;;16.20;96.20;;;;;;4995699;28;20463;-80
2021/08/21 04:24:26;;;;;;;19.52;13.73;;;16.30;96.20;;;;;;5012111;28;20030;-80
2021/08/21 04:26:52;;;;;;;16.95;12.90;;;16.20;96.20;;;;;;5013372;28;20363;-80
2021/08/21 04:29:18;;;;;;;21.65;13.07;;;16.30;96.30;;;;;;4995189;28;20034;-80
2021/08/21 04:31:44;;;;;;;17.52;12.32;;;16.30;96.30;;;;;;4995207;28;20037;-80
2021/08/21 04:34:09;;;;;;;17.98;13.75;;;16.30;96.30;;;;;;5012054;28;20046;-80
2021/08/21 04:36:35;;;;;;;15.90;12.43;;;16.30;96.30;;;;;;4992675;28;20030;-78
2021/08/21 04:39:01;;;;;;;17.75;12.98;;;16.30;96.30;;;;;;4995342;28;20034;-80
2021/08/21 04:41:26;;;;;;;15.60;11.30;;;16.40;96.40;;;;;;5014368;28;20442;-81
2021/08/21 04:43:52;;;;;;;21.08;12.43;;;16.30;96.30;;;;;;5015939;28;20490;-81
2021/08/21 04:46:18;;;;;;;15.77;11.52;;;16.40;96.30;;;;;;5015767;28;20084;-81
2021/08/21 04:48:43;;;;;;;17.00;12.73;;;16.40;96.30;;;;;;5017356;28;20148;-81
2021/08/21 04:51:09;;;;;;;17.25;12.38;;;16.40;96.20;;;;;;5016005;28;20088;-80
2021/08/21 04:53:34;;;;;;;14.70;10.95;;;16.40;96.20;;;;;;4999261;28;20124;-79
2021/08/21 04:56:00;;;;;;;18.52;12.55;;;16.40;96.30;;;;;;5016788;28;20045;-78
2021/08/21 04:58:26;;;;;;;15.88;12.07;;;16.50;96.30;;;;;;5015535;28;20054;-78
2021/08/21 05:00:51;;;;;;;18.02;11.98;;;16.40;96.30;;;;;;5015451;28;20479;-78
2021/08/21 05:03:17;;;;;;;15.77;11.95;;;16.40;96.30;;;;;;4999066;28;20084;-78
2021/08/21 05:05:44;;;;;;;16.10;11.88;;;16.50;96.30;;;;;;5016627;28;20026;-79
2021/08/21 05:08:10;;;;;;;16.13;11.98;;;16.50;96.20;;;;;;5015277;28;20038;-79
2021/08/21 05:10:36;;;;;;;20.50;12.05;;;16.50;96.50;;;;;;4999279;28;20368;-79
2021/08/21 05:13:01;;;;;;;15.35;10.88;;;16.50;96.30;;;;;;5015057;28;20022;-79
2021/08/21 05:15:27;;;;;;;17.40;10.93;;;16.50;96.20;;;;;;5016482;28;20129;-81
2021/08/21 05:17:55;;;;;;;13.23;10.27;;;16.50;96.20;;;;;;4998939;28;20029;-79
2021/08/21 05:20:30;;;;;;;14.57;11.35;;;16.50;96.20;;;;;;4999191;28;20065;-79
2021/08/21 05:23:08;;;;;;;15.68;11.02;;;16.50;96.20;;;;;;5015299;28;20141;-79
2021/08/21 05:25:44;;;;;;;14.57;10.82;;;16.50;96.20;;;;;;5016146;28;20030;-79
2021/08/21 05:28:10;;;;;;;16.70;11.65;;;16.50;96.20;;;;;;5014821;28;20056;-79
2021/08/21 05:30:38;;;;;;;14.65;11.32;;;16.50;96.20;;;;;;4998493;28;20113;-79
2021/08/21 05:33:08;;;;;;;15.35;10.65;;;16.50;96.20;;;;;;5016111;28;20062;-79
2021/08/21 05:35:33;;;;;;;14.23;10.73;;;16.60;96.20;;;;;;5014831;28;20129;-79
2021/08/21 05:37:59;;;;;;;13.88;11.15;;;16.60;96.20;;;;;;5014867;28;20117;-79
2021/08/21 05:40:24;;;;;;;15.15;11.57;;;16.60;96.20;;;;;;5014866;28;20032;-79
2021/08/21 05:42:50;;;;;;;14.80;10.75;;;16.60;96.20;;;;;;5015949;28;20026;-79
2021/08/21 05:45:16;;;;;;;16.48;11.70;;;16.60;96.20;;;;;;5014952;28;20034;-79
2021/08/21 05:47:41;;;;;;;15.70;11.05;;;16.60;96.30;;;;;;5015997;28;20033;-79
2021/08/21 05:50:08;;;;;;;16.92;12.15;;;16.70;96.30;;;;;;4998151;28;20022;-79
2021/08/21 05:52:33;;;;;;;15.13;11.68;;;16.70;96.40;;;;;;5013795;28;20026;-79
2021/08/21 05:54:59;;;;;;;14.60;11.55;;;16.70;96.40;;;;;;5015753;28;20048;-78
2021/08/21 05:57:25;;;;;;;15.88;12.05;;;16.80;96.40;;;;;;5012514;28;20113;-78
2021/08/21 05:59:50;;;;;;;16.20;13.20;;;16.80;96.40;;;;;;5010737;28;20022;-79
2021/08/21 06:02:16;;;;;;;15.77;12.07;;;16.80;96.40;;;;;;4978012;28;20054;-78
2021/08/21 06:04:41;;;;;;;18.35;11.70;;;16.90;96.40;;;;;;4995609;28;20026;-78
2021/08/21 06:07:07;;;;;;;15.50;12.05;;;16.90;96.50;;;;;;4995687;28;20030;-78
2021/08/21 06:09:32;;;;;;;15.40;11.82;;;17.00;96.50;;;;;;4994801;28;20478;-78
2021/08/21 06:11:58;;;;;;;16.30;12.05;;;17.00;96.50;;;;;;4995747;28;20030;-78
2021/08/21 06:14:24;;;;;;;15.00;11.05;;;17.10;96.50;;;;;;4994454;28;20042;-78
2021/08/21 06:16:49;;;;;;;16.10;11.25;;;17.20;96.50;;;;;;4994513;28;20495;-78
2021/08/21 06:19:15;;;;;;;15.35;12.52;;;17.20;96.50;;;;;;4994187;28;20093;-78
2021/08/21 06:21:44;;;;;;;14.10;11.18;;;17.20;96.50;;;;;;4994482;28;20030;-78
2021/08/21 06:24:09;;;;;;;15.60;12.10;;;17.30;96.60;;;;;;4994417;28;20037;-78
2021/08/21 06:26:35;;;;;;;15.70;11.93;;;17.40;96.60;;;;;;4994236;28;20038;-78
2021/08/21 06:29:01;;;;;;;15.52;12.02;;;17.40;96.60;;;;;;4977510;28;20034;-78
2021/08/21 06:31:27;;;;;;;17.17;12.65;;;17.50;96.60;;;;;;4994291;28;20420;-79
2021/08/21 06:33:52;;;;;;;17.00;13.18;;;17.60;96.60;;;;;;4994219;28;20552;-79
2021/08/21 06:36:18;;;;;;;17.75;13.85;;;17.60;96.60;;;;;;5002549;28;20570;-79
2021/08/21 06:38:43;;;;;;;16.65;12.80;;;17.60;96.60;;;;;;5007022;28;20061;-79
2021/08/21 06:41:09;;;;;;;19.27;13.65;;;17.70;96.60;;;;;;4977484;28;20030;-78
2021/08/21 06:43:34;;;;;;;20.52;13.40;;;17.80;96.60;;;;;;4994021;28;20768;-79
2021/08/21 06:46:00;;;;;;;19.75;14.60;;;17.80;96.60;;;;;;4995103;28;20194;-79
2021/08/21 06:48:26;;;;;;;21.77;14.60;;;17.90;96.60;;;;;;4977629;28;20387;-79
2021/08/21 06:50:55;;;;;;;19.42;14.77;;;17.90;96.50;;;;;;4995009;28;20026;-78
2021/08/21 06:53:21;;;;;;;21.02;15.50;;;18.00;96.50;;;;;;4993756;28;20042;-81
2021/08/21 06:55:47;;;;;;;23.35;14.98;;;18.00;96.40;;;;;;4993884;28;20022;-79
2021/08/21 06:58:13;;;;;;;20.98;14.93;;;18.10;96.40;;;;;;4977283;28;20189;-78
2021/08/21 07:00:38;;;;;;;20.00;14.57;;;18.20;96.30;;;;;;4994992;28;20105;-79
2021/08/21 07:03:04;;;;;;;22.13;14.93;;;18.20;96.30;;;;;;4992466;28;20117;-78
2021/08/21 07:05:30;;;;;;;22.05;15.43;;;18.20;96.20;;;;;;4994740;28;20054;-79
2021/08/21 07:07:55;;;;;;;24.65;15.93;;;18.30;96.10;;;;;;4995073;28;20478;-78
2021/08/21 07:10:21;;;;;;;23.58;16.27;;;18.30;96.00;;;;;;4993315;28;20076;-78
2021/08/21 07:12:46;;;;;;;24.05;16.08;;;18.30;95.90;;;;;;4993468;28;20027;-78
2021/08/21 07:15:12;;;;;;;24.60;16.60;;;18.40;95.80;;;;;;4993409;28;20046;-79
2021/08/21 07:17:39;;;;;;;23.33;16.42;;;18.40;95.70;;;;;;4993207;28;20030;-79
2021/08/21 07:20:05;;;;;;;26.95;16.83;;;18.40;95.70;;;;;;4992986;28;20030;-79
2021/08/21 07:22:31;;;;;;;22.55;16.40;;;18.50;95.70;;;;;;4992124;28;20052;-78
2021/08/21 07:24:56;;;;;;;25.50;18.10;;;18.60;95.70;;;;;;5013202;28;20458;-79
2021/08/21 07:27:25;;;;;;;24.75;16.92;;;18.70;95.70;;;;;;5014308;28;20026;-79
2021/08/21 07:29:51;;;;;;;24.38;16.80;;;18.70;95.60;;;;;;4995432;28;20065;-79
2021/08/21 07:32:16;;;;;;;21.35;15.07;;;18.80;95.50;;;;;;4995995;28;20065;-79
2021/08/21 07:34:42;;;;;;;21.60;13.90;;;18.90;95.40;;;;;;4996388;28;20457;-79
2021/08/21 07:37:08;;;;;;;22.65;15.43;;;19.00;95.40;;;;;;5014260;28;20065;-79
2021/08/21 07:39:34;;;;;;;18.90;14.05;;;19.00;95.30;;;;;;5012607;28;20100;-79
2021/08/21 07:41:59;;;;;;;22.73;15.45;;;19.10;95.20;;;;;;4996112;28;20129;-79
2021/08/21 07:44:25;;;;;;;19.52;14.13;;;19.20;95.10;;;;;;5012613;28;20062;-79
2021/08/21 07:46:51;;;;;;;20.40;14.48;;;19.30;95.00;;;;;;5012437;28;20518;-79
2021/08/21 07:49:16;;;;;;;20.52;14.55;;;19.40;94.90;;;;;;5013472;28;20057;-79
2021/08/21 07:51:42;;;;;;;20.17;14.38;;;19.50;94.70;;;;;;5012155;28;20459;-79
2021/08/21 07:54:10;;;;;;;17.80;12.82;;;19.60;94.60;;;;;;5012162;28;20184;-79
2021/08/21 07:56:36;;;;;;;20.08;14.05;;;19.70;94.40;;;;;;5012613;28;20049;-79
2021/08/21 07:59:02;;;;;;;17.80;12.70;;;19.80;94.20;;;;;;4995240;28;20124;-79
2021/08/21 08:01:27;;;;;;;21.30;13.00;;;20.00;94.10;;;;;;5013079;28;20034;-80
2021/08/21 08:03:53;;;;;;;18.20;12.75;;;20.10;94.00;;;;;;5012482;28;20096;-80
2021/08/21 08:06:18;;;;;;;15.45;10.68;;;20.30;93.80;;;;;;5014050;28;20446;-80
2021/08/21 08:08:44;;;;;;;18.67;12.18;;;20.40;93.50;;;;;;5012045;28;20483;-80
2021/08/21 08:11:09;;;;;;;16.10;11.77;;;20.60;93.30;;;;;;5012289;28;20030;-80
2021/08/21 08:13:35;;;;;;;17.85;11.32;;;20.60;93.10;;;;;;5011733;28;20030;-79
2021/08/21 08:16:01;;;;;;;17.77;11.77;;;20.70;92.80;;;;;;4993571;28;20121;-80
2021/08/21 08:18:26;;;;;;;16.48;11.30;;;20.90;92.70;;;;;;4992464;28;20471;-80
2021/08/21 08:20:52;;;;;;;17.92;12.50;;;20.90;92.50;;;;;;4992187;28;20034;-80
2021/08/21 08:23:18;;;;;;;15.77;10.98;;;21.10;92.30;;;;;;4976230;28;20027;-80
2021/08/21 08:25:43;;;;;;;18.58;13.43;;;21.20;91.90;;;;;;4976225;28;20364;-80
2021/08/21 08:28:09;;;;;;;24.48;15.32;;;21.30;91.50;;;;;;4976302;28;20475;-80
2021/08/21 08:30:35;;;;;;;18.35;12.70;;;21.40;91.20;;;;;;4975910;28;20027;-80
2021/08/21 08:33:01;;;;;;;18.85;12.35;;;21.40;90.90;;;;;;4992942;28;20031;-80
2021/08/21 08:35:26;;;;;;;17.15;11.93;;;21.50;90.80;;;;;;4993510;28;20038;-79
2021/08/21 08:37:52;;;;;;;15.88;11.73;;;21.60;90.70;;;;;;4992302;28;20026;-80
2021/08/21 08:40:18;;;;;;;20.52;14.52;;;21.60;90.60;;;;;;4992123;28;20475;-80
2021/08/21 08:42:44;;;;;;;16.65;12.00;;;21.70;90.40;;;;;;4976217;28;20184;-80
2021/08/21 08:45:13;;;;;;;20.75;13.23;;;21.80;90.20;;;;;;4992131;28;20487;-80
2021/08/21 08:47:40;;;;;;;18.55;12.88;;;21.90;89.60;;;;;;4992237;28;20074;-80
2021/08/21 08:50:09;;;;;;;18.52;13.80;;;21.90;89.20;;;;;;4993781;28;20031;-80
2021/08/21 08:52:35;;;;;;;18.00;11.93;;;22.00;88.90;;;;;;4991992;28;20027;-80
2021/08/21 08:55:03;;;;;;;16.30;12.57;;;22.10;88.70;;;;;;4993450;28;20078;-80
2021/08/21 08:57:43;;;;;;;17.05;12.63;;;22.20;88.40;;;;;;4992032;28;20105;-79
2021/08/21 09:00:24;;;;;;;14.30;10.93;;;22.30;87.90;;;;;;4992026;28;20034;-80
2021/08/21 09:02:54;;;;;;;17.50;13.05;;;22.40;87.50;;;;;;4993259;28;20105;-80
2021/08/21 09:05:23;;;;;;;15.88;11.95;;;22.40;87.00;;;;;;4993277;28;20491;-80
2021/08/21 09:07:57;;;;;;;16.98;12.20;;;22.50;86.70;;;;;;4992264;28;20471;-80
2021/08/21 09:10:23;;;;;;;;;;;22.50;86.40;;;;;;4993487;28;20069;-80
2021/08/21 09:13:08;;;;;;;15.38;11.95;;;22.50;86.00;;;;;;4992373;28;20434;-80
2021/08/21 09:15:38;;;;;;;16.23;11.65;;;22.60;85.50;;;;;;4991915;28;20035;-80
2021/08/21 09:18:05;;;;;;;17.58;12.00;;;22.60;84.70;;;;;;4991893;28;20026;-80
2021/08/21 09:20:33;;;;;;;14.32;10.75;;;22.70;84.50;;;;;;4992904;28;20085;-80
2021/08/21 09:23:20;;;;;;;13.45;10.52;;;22.80;84.30;;;;;;4991732;28;20034;-80
2021/08/21 09:25:47;;;;;;;12.95;9.48;;;22.90;83.80;;;;;;4993949;28;20445;-80
2021/08/21 09:28:20;;;;;;;14.73;11.10;;;23.00;83.60;;;;;;4995399;28;20034;-80
2021/08/21 09:30:46;;;;;;;16.90;10.33;;;23.10;83.20;;;;;;4996765;28;20026;-80
2021/08/21 09:33:16;;;;;;;12.10;9.15;;;23.20;83.00;;;;;;4994763;28;20274;-80
2021/08/21 09:35:42;;;;;;;12.73;8.35;;;23.20;83.00;;;;;;4996418;28;20142;-80
2021/08/21 09:38:09;;;;;;;11.55;8.73;;;23.40;82.70;;;;;;4996495;28;20081;-80
2021/08/21 09:40:38;;;;;;;15.13;10.23;;;23.50;82.50;;;;;;4995203;28;20058;-80
2021/08/21 09:43:06;;;;;;;11.18;8.27;;;23.60;82.40;;;;;;4995329;28;20129;-80
2021/08/21 09:45:35;;;;;;;14.13;9.35;;;23.70;82.20;;;;;;5010597;28;20034;-80
2021/08/21 09:48:06;;;;;;;13.48;9.10;;;23.90;81.70;;;;;;4995016;28;20034;-80
2021/08/21 09:50:35;;;;;;;9.52;6.88;;;24.00;80.90;;;;;;5011386;28;20097;-80
2021/08/21 09:53:10;;;;;;;11.52;7.22;;;24.20;79.40;;;;;;5011498;28;20033;-80
2021/08/21 09:55:37;;;;;;;9.45;5.95;;;24.30;78.70;;;;;;5011965;28;20024;-80
2021/08/21 09:58:05;;;;;;;8.93;5.43;;;24.40;78.10;;;;;;5013342;28;20057;-80
2021/08/21 10:00:44;;;;;;;8.98;5.95;;;24.40;77.10;;;;;;4996635;28;20092;-80
2021/08/21 10:03:10;;;;;;;7.97;5.18;;;24.50;75.90;;;;;;5013429;28;20026;-81
2021/08/21 10:05:36;;;;;;;11.43;5.88;;;24.50;75.70;;;;;;4998220;28;20036;-80
2021/08/21 10:08:09;;;;;;;9.77;5.95;;;24.50;75.00;;;;;;5014484;28;20025;-81
2021/08/21 10:10:36;;;;;;;10.95;5.60;;;24.60;74.70;;;;;;5013301;28;20037;-80
2021/08/21 10:13:18;;;;;;;9.60;5.72;;;24.60;74.40;;;;;;5015382;28;20080;-80
2021/08/21 10:15:46;;;;;;;9.23;5.90;;;24.60;73.70;;;;;;5014200;28;20072;-80
2021/08/21 10:18:13;;;;;;;9.52;5.22;;;24.80;73.50;;;;;;5015199;28;20050;-80
2021/08/21 10:20:39;;;;;;;8.48;4.93;;;24.80;72.80;;;;;;5015222;28;20033;-80
2021/08/21 10:23:11;;;;;;;9.77;5.75;;;24.90;72.50;;;;;;5015178;28;20026;-80
2021/08/21 10:25:42;;;;;;;7.22;4.72;;;25.10;72.20;;;;;;5013936;28;20104;-80
2021/08/21 10:28:13;;;;;;;7.72;3.72;;;25.40;72.00;;;;;;5013656;28;20093;-80
2021/08/21 10:30:40;;;;;;;6.88;3.33;;;25.70;71.10;;;;;;5013854;28;20026;-80
2021/08/21 10:33:05;;;;;;;6.05;3.00;;;26.00;70.00;;;;;;5014002;28;20030;-80
2021/08/21 10:35:54;;;;;;;7.75;4.07;;;26.30;69.80;;;;;;5013921;28;20479;-81
2021/08/21 10:38:32;;;;;;;5.75;3.45;;;26.70;68.60;;;;;;5014922;28;20022;-81
2021/08/21 10:41:10;;;;;;;5.70;2.75;;;27.20;68.00;;;;;;5014517;28;20364;-80
2021/08/21 10:43:44;;;;;;;4.95;3.35;;;27.70;67.60;;;;;;5013621;28;20033;-81
2021/08/21 10:46:10;;;;;;;7.63;3.90;;;28.20;66.50;;;;;;5014683;28;20113;-81
2021/08/21 10:48:36;;;;;;;6.03;3.30;;;28.80;66.00;;;;;;5013800;28;20029;-81
2021/08/21 10:51:25;;;;;;;5.45;2.85;;;29.20;64.30;;;;;;5014619;28;20032;-81
2021/08/21 10:53:51;;;;;;;5.30;3.33;;;29.80;63.40;;;;;;5014155;28;20030;-81
2021/08/21 10:56:38;;;;;;;4.32;2.13;;;30.50;61.80;;;;;;5013241;28;20060;-81
2021/08/21 10:59:04;;;;;;;3.55;2.10;;;31.00;59.00;;;;;;4997090;28;20064;-81
2021/08/21 11:01:30;;;;;;;3.80;1.73;;;31.50;58.90;;;;;;5014615;28;20030;-82
2021/08/21 11:03:56;;;;;;;4.38;2.00;;;31.90;56.50;;;;;;5014671;28;20478;-81
2021/08/21 11:06:37;;;;;;;4.40;2.28;;;32.20;55.50;;;;;;5014499;28;20091;-81
2021/08/21 11:09:05;;;;;;;4.40;1.95;;;32.60;53.50;;;;;;5013020;28;20064;-81
2021/08/21 11:11:44;;;;;;;3.22;1.52;;;32.80;53.20;;;;;;5012910;28;20054;-81
2021/08/21 11:14:24;;;;;;;3.10;1.27;;;33.00;52.80;;;;;;5014333;28;20037;-81
2021/08/21 11:16:51;;;;;;;4.30;1.95;;;33.10;50.80;;;;;;5013012;28;20024;-81
2021/08/21 11:19:41;;;;;;;3.75;2.03;;;32.90;50.30;;;;;;5014062;28;20026;-81
2021/08/21 11:22:10;;;;;;;4.13;1.73;;;32.60;50.20;;;;;;5009529;28;20394;-82
2021/08/21 11:24:57;;;;;;;3.65;1.77;;;32.70;50.50;;;;;;5012841;28;20058;-82
2021/08/21 11:27:23;;;;;;;3.05;1.55;;;32.90;50.20;;;;;;5012808;28;20489;-82
2021/08/21 11:32:39;;;;;;;5.93;2.10;;;32.90;49.00;;;;;;5014193;28;20377;-81
2021/08/21 11:35:06;;;;;;;3.20;1.40;;;33.20;49.20;;;;;;4997305;28;20042;-82
2021/08/21 11:37:33;;;;;;;3.90;1.90;;;33.40;48.60;;;;;;5006520;28;20030;-82
2021/08/21 11:39:59;;;;;;;3.45;1.60;;;33.60;48.50;;;;;;4976646;28;20445;-82
2021/08/21 11:42:54;;;;;;;3.67;1.60;;;33.80;48.10;;;;;;4992326;28;20030;-82
2021/08/21 11:45:20;;;;;;;2.75;1.23;;;34.00;46.90;;;;;;4992960;28;20080;-82
2021/08/21 11:47:47;;;;;;;2.90;1.23;;;33.90;46.80;;;;;;4992459;28;20023;-81
2021/08/21 11:50:24;;;;;;;2.45;1.25;;;33.50;46.20;;;;;;4992227;28;20042;-81
2021/08/21 11:52:52;;;;;;;3.00;0.88;;;33.20;45.10;;;;;;4992305;28;20113;-82
2021/08/21 11:55:19;;;;;;;3.08;1.08;;;33.10;45.60;;;;;;4992781;28;20041;-82
2021/08/21 11:57:47;;;;;;;2.30;1.10;;;33.10;45.50;;;;;;4992295;28;20360;-81
2021/08/21 12:00:33;;;;;;;4.65;1.30;;;33.00;45.30;;;;;;4992807;28;20109;-81
2021/08/21 12:03:05;;;;;;;5.57;1.63;;;32.80;45.90;;;;;;4992513;28;20371;-81
2021/08/21 12:05:42;;;;;;;2.90;1.60;;;32.60;46.40;;;;;;4992370;28;20034;-81
2021/08/21 12:08:24;;;;;;;5.38;1.30;;;32.20;46.70;;;;;;4992234;28;20030;-81
2021/08/21 12:10:57;;;;;;;3.80;1.35;;;32.00;47.10;;;;;;4993571;28;20030;-81
2021/08/21 12:13:27;;;;;;;;;;;31.70;47.10;;;;;;4992689;28;20501;-81
2021/08/21 12:15:53;;;;;;;3.05;1.38;;;31.40;47.90;;;;;;4994149;28;20274;-81
2021/08/21 12:18:25;;;;;;;3.28;1.27;;;31.00;47.70;;;;;;4976135;28;20030;-81
2021/08/21 12:20:51;;;;;;;4.95;1.52;;;30.70;48.50;;;;;;4993818;28;20018;-81
2021/08/21 12:23:17;;;;;;;4.47;1.65;;;30.50;49.00;;;;;;4976507;28;20128;-81
2021/08/21 12:25:55;;;;;;;3.78;1.88;;;30.30;49.50;;;;;;4993612;28;20026;-81
2021/08/21 12:28:24;;;;;;;6.90;1.88;;;30.10;49.80;;;;;;4991943;28;20026;-81
2021/08/21 12:31:05;;;;;;;2.83;1.38;;;29.80;50.00;;;;;;4992185;28;20533;-81
2021/08/21 12:33:56;;;;;;;4.03;1.67;;;29.60;50.70;;;;;;4993585;28;20038;-81
2021/08/21 12:36:24;;;;;;;4.35;1.58;;;29.30;51.10;;;;;;4992483;28;20076;-82
2021/08/21 12:39:11;;;;;;;3.95;1.85;;;29.20;51.40;;;;;;4993831;28;20026;-81